createdAt,value
2019-02-27T00:00:25.087Z,55.46
2019-02-27T00:01:32.938Z,55.47
2019-02-27T00:02:38.383Z,55.49
2019-02-27T00:03:43.575Z,55.49
2019-02-27T00:04:49.067Z,55.50
2019-02-27T00:05:54.167Z,55.50
2019-02-27T00:06:59.272Z,55.50
2019-02-27T00:08:05.003Z,55.58
2019-02-27T00:09:11.477Z,55.58
2019-02-27T00:10:16.726Z,55.62
2019-02-27T00:11:21.881Z,55.69
2019-02-27T00:12:27.842Z,55.73
2019-02-27T00:13:33.522Z,55.76
2019-02-27T00:14:38.695Z,55.76
2019-02-27T00:15:44.427Z,55.77
2019-02-27T00:16:49.505Z,55.76
2019-02-27T00:17:54.653Z,55.77
2019-02-27T00:18:59.788Z,55.75
2019-02-27T00:20:05.444Z,55.73
2019-02-27T00:21:11.252Z,55.74
2019-02-27T00:22:17.717Z,55.74
2019-02-27T00:23:24.132Z,55.78
2019-02-27T00:24:30.522Z,55.79
2019-02-27T00:25:36.150Z,55.84
2019-02-27T00:26:43.079Z,55.86
2019-02-27T00:27:49.938Z,55.89
2019-02-27T00:28:56.135Z,55.98
2019-02-27T00:30:04.817Z,55.98
2019-02-27T00:31:11.255Z,55.96
2019-02-27T00:32:15.790Z,55.96
2019-02-27T00:33:25.198Z,56.00
2019-02-27T00:34:32.789Z,56.01
2019-02-27T00:35:38.820Z,56.02
2019-02-27T00:36:45.088Z,56.08
2019-02-27T00:37:52.044Z,56.13
2019-02-27T00:38:58.471Z,56.19
2019-02-27T00:40:05.717Z,56.23
2019-02-27T00:41:12.922Z,56.25
2019-02-27T00:42:20.659Z,56.30
2019-02-27T00:43:25.968Z,56.33
2019-02-27T00:44:34.733Z,56.37
2019-02-27T00:45:40.529Z,56.41
2019-02-27T00:46:46.439Z,56.44
2019-02-27T00:47:53.315Z,56.47
2019-02-27T00:48:59.845Z,56.26
2019-02-27T00:50:06.559Z,56.26
2019-02-27T00:51:12.785Z,56.54
2019-02-27T00:52:18.784Z,56.57
2019-02-27T00:53:25.111Z,56.63
2019-02-27T00:54:31.479Z,56.68
2019-02-27T00:55:39.315Z,56.73
2019-02-27T00:56:45.731Z,56.79
2019-02-27T00:57:53.903Z,56.84
2019-02-27T00:59:00.144Z,56.89
2019-02-27T01:00:07.967Z,56.92
2019-02-27T01:01:13.348Z,56.93
2019-02-27T01:02:20.292Z,56.94
2019-02-27T01:03:26.251Z,56.97
2019-02-27T01:04:34.932Z,57.01
2019-02-27T01:05:41.082Z,57.06
2019-02-27T01:06:47.611Z,57.05
2019-02-27T01:07:54.131Z,57.07
2019-02-27T01:08:59.671Z,57.11
2019-02-27T01:10:05.799Z,57.12
2019-02-27T01:11:11.055Z,57.15
2019-02-27T01:12:16.263Z,57.17
2019-02-27T01:13:21.537Z,57.17
2019-02-27T01:14:26.633Z,57.19
2019-02-27T01:15:31.820Z,57.18
2019-02-27T01:16:37.523Z,57.18
2019-02-27T01:17:42.733Z,57.21
2019-02-27T01:18:47.735Z,57.26
2019-02-27T01:19:53.592Z,57.26
2019-02-27T01:20:59.026Z,57.26
2019-02-27T01:22:04.164Z,57.26
2019-02-27T01:23:11.058Z,57.29
2019-02-27T01:24:17.562Z,57.30
2019-02-27T01:25:23.622Z,57.32
2019-02-27T01:26:30.815Z,57.34
2019-02-27T01:27:38.048Z,57.36
2019-02-27T01:28:45.496Z,57.38
2019-02-27T01:29:51.631Z,57.39
2019-02-27T01:30:56.026Z,57.39
2019-02-27T01:32:01.259Z,57.43
2019-02-27T01:33:06.522Z,57.40
2019-02-27T01:34:11.968Z,57.44
2019-02-27T01:35:18.805Z,57.46
2019-02-27T01:36:25.279Z,57.44
2019-02-27T01:37:31.694Z,57.45
2019-02-27T01:38:38.149Z,57.44
2019-02-27T01:39:44.231Z,57.45
2019-02-27T01:40:51.544Z,57.46
2019-02-27T01:41:57.890Z,57.47
2019-02-27T01:43:06.281Z,57.48
2019-02-27T01:44:11.105Z,57.52
2019-02-27T01:45:20.630Z,57.54
2019-02-27T01:46:25.188Z,57.58
2019-02-27T01:47:35.911Z,57.61
2019-02-27T01:48:42.735Z,57.68
2019-02-27T01:49:48.966Z,57.69
2019-02-27T01:50:54.950Z,57.71
2019-02-27T01:52:02.058Z,57.72
2019-02-27T01:53:08.092Z,57.71
2019-02-27T01:54:14.998Z,57.77
2019-02-27T01:55:22.421Z,57.79
2019-02-27T01:56:29.173Z,57.83
2019-02-27T01:57:36.820Z,57.87
2019-02-27T01:58:44.296Z,57.88
2019-02-27T01:59:50.550Z,57.90
2019-02-27T02:00:56.327Z,57.88
2019-02-27T02:02:03.496Z,57.87
2019-02-27T02:03:11.176Z,57.89
2019-02-27T02:04:20.062Z,57.93
2019-02-27T02:05:26.330Z,57.97
2019-02-27T02:06:32.463Z,58.01
2019-02-27T02:07:39.927Z,58.02
2019-02-27T02:08:48.009Z,58.05
2019-02-27T02:09:55.176Z,58.11
2019-02-27T02:11:01.448Z,58.19
2019-02-27T02:12:09.759Z,58.28
2019-02-27T02:13:21.705Z,58.35
2019-02-27T02:15:00.810Z,58.44
2019-02-27T02:16:27.676Z,58.51
2019-02-27T02:18:22.176Z,58.45
2019-02-27T02:19:54.176Z,58.46
2019-02-27T02:21:42.451Z,58.42
2019-02-27T02:23:14.176Z,58.48
2019-02-27T02:25:01.355Z,58.47
2019-02-27T02:26:35.047Z,58.49
2019-02-27T02:28:15.958Z,58.95
2019-02-27T02:29:52.957Z,58.95
2019-02-27T02:31:25.445Z,58.43
2019-02-27T02:32:52.025Z,58.46
2019-02-27T02:34:39.933Z,58.51
2019-02-27T02:36:26.996Z,58.59
2019-02-27T02:38:31.597Z,58.65
2019-02-27T02:40:16.331Z,58.66
2019-02-27T02:41:47.930Z,58.66
2019-02-27T02:43:45.225Z,58.69
2019-02-27T02:45:18.655Z,58.71
2019-02-27T02:46:59.687Z,58.77
2019-02-27T02:49:06.458Z,58.82
2019-02-27T02:50:56.044Z,58.82
2019-02-27T02:52:24.807Z,58.89
2019-02-27T02:54:00.353Z,58.90
2019-02-27T02:55:20.358Z,58.99
2019-02-27T02:57:01.507Z,59.13
2019-02-27T02:58:48.324Z,59.24
2019-02-27T02:59:59.381Z,59.35
2019-02-27T03:01:32.667Z,59.52
2019-02-27T03:03:06.206Z,59.66
2019-02-27T03:04:30.464Z,59.76
2019-02-27T03:05:58.541Z,59.87
2019-02-27T03:07:49.732Z,60.03
2019-02-27T03:09:15.295Z,60.15
2019-02-27T03:10:31.790Z,60.21
2019-02-27T03:12:20.273Z,60.30
2019-02-27T03:14:17.259Z,60.45
2019-02-27T03:16:07.732Z,59.70
2019-02-27T03:17:59.243Z,59.70
2019-02-27T03:19:33.020Z,60.58
2019-02-27T03:21:08.298Z,60.62
2019-02-27T03:22:40.471Z,60.87
2019-02-27T03:24:28.995Z,60.87
2019-02-27T03:26:07.772Z,60.88
2019-02-27T03:27:36.837Z,60.93
2019-02-27T03:29:17.425Z,60.94
2019-02-27T03:30:47.244Z,60.97
2019-02-27T03:32:06.579Z,60.94
2019-02-27T03:33:27.222Z,60.94
2019-02-27T03:35:03.601Z,60.94
2019-02-27T03:36:38.995Z,60.89
2019-02-27T03:38:09.707Z,60.78
2019-02-27T03:39:44.252Z,60.69
2019-02-27T03:41:27.935Z,60.63
2019-02-27T03:43:10.113Z,60.18
2019-02-27T03:45:03.810Z,60.18
2019-02-27T03:46:40.779Z,60.37
2019-02-27T03:47:58.029Z,60.25
2019-02-27T03:49:39.709Z,60.20
2019-02-27T03:50:58.303Z,60.13
2019-02-27T03:52:43.680Z,60.13
2019-02-27T03:54:23.922Z,60.11
2019-02-27T03:56:10.025Z,60.00
2019-02-27T03:57:40.881Z,60.00
2019-02-27T03:59:26.839Z,60.00
2019-02-27T04:01:12.326Z,59.99
2019-02-27T04:02:57.631Z,59.93
2019-02-27T04:04:45.695Z,59.90
2019-02-27T04:06:31.838Z,59.90
2019-02-27T04:08:30.387Z,59.88
2019-02-27T04:09:37.302Z,59.87
2019-02-27T04:10:42.432Z,59.90
2019-02-27T04:11:47.480Z,59.93
2019-02-27T04:12:52.588Z,60.20
2019-02-27T04:14:04.941Z,60.20
2019-02-27T04:15:06.322Z,59.93
2019-02-27T04:16:11.896Z,59.88
2019-02-27T04:17:16.909Z,59.88
2019-02-27T04:18:20.414Z,59.92
2019-02-27T04:19:25.679Z,59.90
2019-02-27T04:20:31.551Z,59.91
2019-02-27T04:21:36.875Z,59.91
2019-02-27T04:22:42.249Z,59.90
2019-02-27T04:23:49.256Z,59.90
2019-02-27T04:24:56.828Z,59.90
2019-02-27T04:26:05.422Z,59.89
2019-02-27T04:27:08.752Z,59.86
2019-02-27T04:28:14.409Z,59.81
2019-02-27T04:29:19.522Z,59.78
2019-02-27T04:30:24.977Z,59.74
2019-02-27T04:31:30.694Z,59.90
2019-02-27T04:32:36.516Z,59.63
2019-02-27T04:33:41.608Z,59.57
2019-02-27T04:34:46.656Z,59.52
2019-02-27T04:35:51.871Z,59.51
2019-02-27T04:36:57.127Z,59.47
2019-02-27T04:38:02.339Z,59.43
2019-02-27T04:39:07.539Z,59.39
2019-02-27T04:40:12.846Z,59.32
2019-02-27T04:41:18.712Z,59.53
2019-02-27T04:42:26.528Z,59.53
2019-02-27T04:43:32.268Z,59.21
2019-02-27T04:44:38.905Z,59.18
2019-02-27T04:45:46.895Z,59.15
2019-02-27T04:46:54.804Z,59.11
2019-02-27T04:47:58.535Z,59.10
2019-02-27T04:49:05.018Z,59.16
2019-02-27T04:50:11.267Z,59.03
2019-02-27T04:51:17.729Z,59.00
2019-02-27T04:52:24.401Z,58.95
2019-02-27T04:53:31.928Z,58.93
2019-02-27T04:54:41.294Z,58.89
2019-02-27T04:55:44.219Z,59.63
2019-02-27T04:56:49.550Z,59.63
2019-02-27T04:57:54.633Z,58.88
2019-02-27T04:59:00.108Z,58.90
2019-02-27T05:00:06.258Z,58.88
2019-02-27T05:01:15.087Z,58.88
2019-02-27T05:02:20.427Z,58.89
2019-02-27T05:03:25.769Z,58.88
2019-02-27T05:04:35.269Z,58.87
2019-02-27T05:05:41.391Z,58.89
2019-02-27T05:06:47.366Z,58.89
2019-02-27T05:07:54.275Z,58.89
2019-02-27T05:09:00.279Z,58.88
2019-02-27T05:10:07.318Z,58.86
2019-02-27T05:11:14.327Z,58.45
2019-02-27T05:12:19.851Z,58.45
2019-02-27T05:13:25.254Z,58.80
2019-02-27T05:14:30.299Z,58.80
2019-02-27T05:15:38.891Z,58.79
2019-02-27T05:16:46.997Z,58.79
2019-02-27T05:17:49.844Z,58.78
2019-02-27T05:18:55.340Z,59.35
2019-02-27T05:20:00.734Z,59.35
2019-02-27T05:21:06.040Z,58.71
2019-02-27T05:22:11.111Z,58.70
2019-02-27T05:23:16.516Z,58.67
2019-02-27T05:24:21.586Z,58.56
2019-02-27T05:25:27.023Z,58.54
2019-02-27T05:26:32.155Z,58.40
2019-02-27T05:27:38.068Z,58.40
2019-02-27T05:28:43.573Z,58.29
2019-02-27T05:29:48.548Z,58.29
2019-02-27T05:30:53.943Z,58.24
2019-02-27T05:31:59.116Z,58.18
2019-02-27T05:33:04.211Z,58.13
2019-02-27T05:34:12.416Z,57.74
2019-02-27T05:35:16.726Z,58.05
2019-02-27T05:36:22.431Z,58.01
2019-02-27T05:37:28.021Z,57.94
2019-02-27T05:38:33.177Z,57.87
2019-02-27T05:39:38.281Z,57.78
2019-02-27T05:40:43.415Z,57.78
2019-02-27T05:41:48.511Z,57.76
2019-02-27T05:42:53.770Z,57.72
2019-02-27T05:43:59.072Z,57.65
2019-02-27T05:45:04.696Z,57.61
2019-02-27T05:46:09.740Z,57.55
2019-02-27T05:47:15.131Z,57.46
2019-02-27T05:48:20.640Z,57.42
2019-02-27T05:49:27.401Z,57.38
2019-02-27T05:50:34.346Z,57.70
2019-02-27T05:51:39.656Z,57.27
2019-02-27T05:52:48.533Z,57.20
2019-02-27T05:53:51.613Z,57.16
2019-02-27T05:54:56.628Z,57.03
2019-02-27T05:56:02.147Z,57.03
2019-02-27T05:57:07.350Z,57.02
2019-02-27T05:58:12.523Z,57.00
2019-02-27T05:59:17.781Z,56.96
2019-02-27T06:00:23.312Z,56.93
2019-02-27T06:01:28.506Z,56.88
2019-02-27T06:02:33.563Z,56.82
2019-02-27T06:03:38.582Z,56.78
2019-02-27T06:04:43.772Z,56.73
2019-02-27T06:05:49.795Z,56.67
2019-02-27T06:06:55.052Z,56.35
2019-02-27T06:08:02.341Z,56.59
2019-02-27T06:09:09.923Z,56.55
2019-02-27T06:10:19.736Z,56.50
2019-02-27T06:11:21.823Z,56.42
2019-02-27T06:12:26.939Z,56.35
2019-02-27T06:13:32.477Z,56.29
2019-02-27T06:14:37.996Z,56.23
2019-02-27T06:15:43.387Z,56.20
2019-02-27T06:16:48.845Z,56.15
2019-02-27T06:17:55.326Z,56.12
2019-02-27T06:19:00.405Z,56.08
2019-02-27T06:20:07.895Z,56.20
2019-02-27T06:21:13.345Z,56.20
2019-02-27T06:22:19.960Z,56.00
2019-02-27T06:23:25.548Z,56.10
2019-02-27T06:24:30.551Z,56.18
2019-02-27T06:25:35.662Z,56.18
2019-02-27T06:26:40.799Z,55.92
2019-02-27T06:27:45.931Z,56.14
2019-02-27T06:28:51.004Z,55.85
2019-02-27T06:29:57.096Z,55.81
2019-02-27T06:31:03.197Z,55.76
2019-02-27T06:32:11.910Z,55.71
2019-02-27T06:33:15.332Z,55.70
2019-02-27T06:34:22.388Z,55.66
2019-02-27T06:35:27.513Z,55.62
2019-02-27T06:36:32.766Z,55.55
2019-02-27T06:37:37.923Z,55.48
2019-02-27T06:38:43.085Z,55.42
2019-02-27T06:39:48.178Z,55.30
2019-02-27T06:40:53.647Z,55.21
2019-02-27T06:41:59.034Z,55.11
2019-02-27T06:43:04.264Z,54.90
2019-02-27T06:44:10.008Z,54.93
2019-02-27T06:45:15.581Z,54.87
2019-02-27T06:46:20.780Z,54.81
2019-02-27T06:47:26.169Z,54.81
2019-02-27T06:48:31.368Z,54.76
2019-02-27T06:49:36.503Z,54.75
2019-02-27T06:50:42.738Z,54.78
2019-02-27T06:51:47.896Z,54.80
2019-02-27T06:52:52.963Z,54.82
2019-02-27T06:53:58.089Z,54.87
2019-02-27T06:55:03.707Z,54.94
2019-02-27T06:56:09.821Z,54.94
2019-02-27T06:57:14.828Z,55.02
2019-02-27T06:58:19.934Z,55.12
2019-02-27T06:59:25.740Z,55.17
2019-02-27T07:00:35.770Z,55.29
2019-02-27T07:01:38.096Z,55.36
2019-02-27T07:02:43.498Z,55.42
2019-02-27T07:03:49.203Z,54.96
2019-02-27T07:04:54.479Z,54.96
2019-02-27T07:05:59.752Z,55.60
2019-02-27T07:07:04.897Z,55.63
2019-02-27T07:08:10.003Z,55.69
2019-02-27T07:09:15.199Z,55.70
2019-02-27T07:10:20.679Z,55.24
2019-02-27T07:11:26.238Z,55.72
2019-02-27T07:12:31.394Z,55.73
2019-02-27T07:13:36.862Z,55.72
2019-02-27T07:14:42.140Z,55.71
2019-02-27T07:15:48.278Z,55.78
2019-02-27T07:16:57.176Z,55.78
2019-02-27T07:18:03.482Z,55.69
2019-02-27T07:19:07.703Z,55.69
2019-02-27T07:20:13.756Z,55.62
2019-02-27T07:21:18.879Z,55.62
2019-02-27T07:22:24.075Z,55.66
2019-02-27T07:23:29.225Z,55.66
2019-02-27T07:24:34.443Z,55.57
2019-02-27T07:25:42.871Z,55.51
2019-02-27T07:26:50.273Z,55.51
2019-02-27T07:27:57.047Z,55.27
2019-02-27T07:29:02.229Z,55.39
2019-02-27T07:30:09.865Z,55.37
2019-02-27T07:31:17.545Z,55.37
2019-02-27T07:32:22.197Z,55.19
2019-02-27T07:33:27.681Z,55.19
2019-02-27T07:34:34.596Z,55.19
2019-02-27T07:35:40.092Z,55.17
2019-02-27T07:36:45.682Z,55.24
2019-02-27T07:37:50.814Z,55.08
2019-02-27T07:38:57.547Z,55.00
2019-02-27T07:40:07.930Z,54.92
2019-02-27T07:41:10.630Z,54.81
2019-02-27T07:42:15.629Z,54.72
2019-02-27T07:43:20.661Z,54.53
2019-02-27T07:44:26.565Z,54.53
2019-02-27T07:45:31.613Z,54.41
2019-02-27T07:46:36.708Z,54.23
2019-02-27T07:47:41.962Z,54.10
2019-02-27T07:48:47.160Z,53.97
2019-02-27T07:49:52.282Z,53.82
2019-02-27T07:50:57.605Z,53.66
2019-02-27T07:52:02.741Z,53.58
2019-02-27T07:53:07.974Z,53.45
2019-02-27T07:54:13.154Z,53.35
2019-02-27T07:55:21.901Z,53.27
2019-02-27T07:56:25.147Z,53.19
2019-02-27T07:57:30.455Z,53.10
2019-02-27T07:58:36.426Z,53.04
2019-02-27T07:59:41.623Z,52.97
2019-02-27T08:00:47.118Z,52.92
2019-02-27T08:01:53.989Z,52.88
2019-02-27T08:02:58.966Z,52.87
2019-02-27T08:04:04.041Z,52.77
2019-02-27T08:05:09.146Z,52.74
2019-02-27T08:06:14.419Z,52.68
2019-02-27T08:07:19.529Z,52.59
2019-02-27T08:08:24.648Z,52.53
2019-02-27T08:09:30.684Z,52.46
2019-02-27T08:10:36.902Z,52.12
2019-02-27T08:11:47.115Z,52.12
2019-02-27T08:12:49.637Z,52.24
2019-02-27T08:13:54.729Z,52.16
2019-02-27T08:14:59.960Z,52.09
2019-02-27T08:16:05.097Z,52.02
2019-02-27T08:17:17.389Z,51.90
2019-02-27T08:18:16.946Z,51.84
2019-02-27T08:19:22.062Z,51.68
2019-02-27T08:20:27.887Z,51.48
2019-02-27T08:21:33.061Z,51.25
2019-02-27T08:22:38.075Z,51.06
2019-02-27T08:23:43.232Z,50.93
2019-02-27T08:24:48.671Z,50.76
2019-02-27T08:25:53.806Z,50.60
2019-02-27T08:26:59.411Z,50.40
2019-02-27T08:28:04.864Z,50.17
2019-02-27T08:29:10.213Z,50.01
2019-02-27T08:30:18.966Z,49.78
2019-02-27T08:31:27.894Z,49.46
2019-02-27T08:32:31.949Z,49.24
2019-02-27T08:33:37.884Z,49.01
2019-02-27T08:34:43.297Z,48.84
2019-02-27T08:35:48.786Z,48.63
2019-02-27T08:36:53.930Z,48.51
2019-02-27T08:38:02.817Z,48.31
2019-02-27T08:39:07.401Z,48.14
2019-02-27T08:40:13.152Z,48.03
2019-02-27T08:41:18.289Z,47.86
2019-02-27T08:42:23.372Z,47.74
2019-02-27T08:43:30.438Z,47.61
2019-02-27T08:44:35.985Z,47.48
2019-02-27T08:45:41.153Z,47.36
2019-02-27T08:46:46.467Z,47.23
2019-02-27T08:47:51.513Z,47.19
2019-02-27T08:48:56.610Z,47.10
2019-02-27T08:50:02.119Z,47.05
2019-02-27T08:51:08.763Z,46.96
2019-02-27T08:52:16.245Z,46.82
2019-02-27T08:53:26.003Z,46.74
2019-02-27T08:54:32.240Z,46.60
2019-02-27T08:55:39.006Z,46.16
2019-02-27T08:56:44.027Z,46.16
2019-02-27T08:57:50.031Z,46.41
2019-02-27T08:58:55.521Z,46.32
2019-02-27T09:00:00.636Z,46.29
2019-02-27T09:01:07.451Z,46.20
2019-02-27T09:02:13.015Z,46.11
2019-02-27T09:03:20.526Z,46.06
2019-02-27T09:04:25.316Z,46.01
2019-02-27T09:05:30.581Z,45.97
2019-02-27T09:06:35.642Z,45.90
2019-02-27T09:07:42.935Z,45.78
2019-02-27T09:08:48.443Z,45.71
2019-02-27T09:09:55.203Z,45.67
2019-02-27T09:11:05.366Z,45.57
2019-02-27T09:12:13.148Z,45.49
2019-02-27T09:13:15.524Z,45.45
2019-02-27T09:14:20.614Z,45.38
2019-02-27T09:15:26.048Z,45.29
2019-02-27T09:16:31.163Z,45.23
2019-02-27T09:17:36.329Z,45.19
2019-02-27T09:18:41.405Z,45.14
2019-02-27T09:19:46.995Z,45.10
2019-02-27T09:20:53.418Z,45.09
2019-02-27T09:21:59.925Z,45.08
2019-02-27T09:23:05.871Z,45.08
2019-02-27T09:24:11.238Z,45.05
2019-02-27T09:25:16.611Z,45.04
2019-02-27T09:26:22.064Z,45.04
2019-02-27T09:27:27.417Z,45.03
2019-02-27T09:28:32.782Z,45.01
2019-02-27T09:29:37.874Z,45.03
2019-02-27T09:30:43.294Z,45.03
2019-02-27T09:31:51.074Z,45.01
2019-02-27T09:32:55.236Z,45.01
2019-02-27T09:34:00.600Z,44.97
2019-02-27T09:35:06.217Z,44.92
2019-02-27T09:36:11.325Z,44.92
2019-02-27T09:37:17.744Z,44.87
2019-02-27T09:38:24.350Z,44.82
2019-02-27T09:39:31.168Z,44.79
2019-02-27T09:40:38.905Z,44.81
2019-02-27T09:41:46.983Z,44.80
2019-02-27T09:42:53.061Z,44.79
2019-02-27T09:43:58.626Z,44.81
2019-02-27T09:45:08.202Z,44.83
2019-02-27T09:46:12.441Z,44.86
2019-02-27T09:47:17.527Z,44.88
2019-02-27T09:48:22.980Z,44.83
2019-02-27T09:49:28.210Z,44.77
2019-02-27T09:50:35.238Z,44.66
2019-02-27T09:51:40.443Z,44.60
2019-02-27T09:52:45.606Z,44.58
2019-02-27T09:53:52.832Z,44.51
2019-02-27T09:54:58.186Z,44.46
2019-02-27T09:56:03.765Z,44.42
2019-02-27T09:57:08.964Z,44.39
2019-02-27T09:58:14.164Z,44.42
2019-02-27T09:59:19.793Z,44.41
2019-02-27T10:00:30.951Z,44.35
2019-02-27T10:01:36.145Z,44.32
2019-02-27T10:02:43.121Z,44.26
2019-02-27T10:03:48.423Z,44.21
2019-02-27T10:04:53.706Z,44.18
2019-02-27T10:05:58.804Z,44.15
2019-02-27T10:07:03.943Z,44.09
2019-02-27T10:08:10.527Z,44.01
2019-02-27T10:09:20.382Z,43.92
2019-02-27T10:10:25.606Z,43.86
2019-02-27T10:11:30.940Z,43.68
2019-02-27T10:12:36.233Z,43.55
2019-02-27T10:13:41.357Z,43.48
2019-02-27T10:14:47.886Z,43.39
2019-02-27T10:15:53.296Z,43.34
2019-02-27T10:16:58.430Z,43.31
2019-02-27T10:18:03.935Z,43.27
2019-02-27T10:19:08.943Z,43.22
2019-02-27T10:20:14.302Z,43.20
2019-02-27T10:21:20.045Z,43.14
2019-02-27T10:22:25.276Z,43.11
2019-02-27T10:23:31.272Z,43.10
2019-02-27T10:24:37.599Z,43.06
2019-02-27T10:25:43.489Z,43.06
2019-02-27T10:26:49.271Z,43.05
2019-02-27T10:27:54.321Z,43.03
2019-02-27T10:28:59.483Z,43.01
2019-02-27T10:30:11.323Z,42.98
2019-02-27T10:31:12.759Z,42.91
2019-02-27T10:32:17.745Z,42.79
2019-02-27T10:33:22.882Z,42.73
2019-02-27T10:34:27.999Z,42.67
2019-02-27T10:35:34.986Z,42.60
2019-02-27T10:36:40.126Z,42.49
2019-02-27T10:37:50.273Z,42.45
2019-02-27T10:38:52.512Z,42.37
2019-02-27T10:39:57.634Z,42.31
2019-02-27T10:41:02.796Z,42.25
2019-02-27T10:42:08.337Z,42.21
2019-02-27T10:43:13.502Z,42.15
2019-02-27T10:44:18.507Z,42.11
2019-02-27T10:45:23.640Z,42.13
2019-02-27T10:46:28.833Z,42.13
2019-02-27T10:47:36.539Z,42.13
2019-02-27T10:48:41.269Z,42.07
2019-02-27T10:49:46.394Z,41.99
2019-02-27T10:50:51.492Z,41.89
2019-02-27T10:51:56.694Z,41.82
2019-02-27T10:53:02.319Z,41.74
2019-02-27T10:54:07.498Z,41.68
2019-02-27T10:55:14.249Z,41.65
2019-02-27T10:56:21.640Z,41.63
2019-02-27T10:57:31.432Z,41.56
2019-02-27T10:58:53.381Z,41.55
2019-02-27T10:59:58.796Z,41.52
2019-02-27T11:01:04.467Z,41.42
2019-02-27T11:02:12.381Z,41.37
2019-02-27T11:03:16.582Z,41.32
2019-02-27T11:04:22.021Z,41.25
2019-02-27T11:05:29.042Z,41.21
2019-02-27T11:06:37.652Z,41.19
2019-02-27T11:07:41.142Z,41.15
2019-02-27T11:08:46.298Z,41.16
2019-02-27T11:09:51.482Z,41.20
2019-02-27T11:10:57.128Z,41.24
2019-02-27T11:12:02.302Z,41.23
2019-02-27T11:13:07.740Z,41.22
2019-02-27T11:14:13.103Z,41.21
2019-02-27T11:15:18.818Z,41.22
2019-02-27T11:16:23.976Z,41.21
2019-02-27T11:17:29.170Z,41.20
2019-02-27T11:18:34.379Z,41.14
2019-02-27T11:19:39.564Z,41.11
2019-02-27T11:20:44.910Z,41.11
2019-02-27T11:21:50.309Z,41.05
2019-02-27T11:22:55.364Z,41.03
2019-02-27T11:24:00.596Z,40.99
2019-02-27T11:25:07.174Z,40.95
2019-02-27T11:26:12.419Z,40.88
2019-02-27T11:27:17.951Z,40.85
2019-02-27T11:28:23.123Z,40.86
2019-02-27T11:29:28.371Z,40.85
2019-02-27T11:30:36.847Z,40.80
2019-02-27T11:31:45.183Z,40.88
2019-02-27T11:32:49.151Z,40.88
2019-02-27T11:33:54.683Z,40.84
2019-02-27T11:35:00.269Z,40.81
2019-02-27T11:36:06.337Z,40.78
2019-02-27T11:37:13.867Z,40.75
2019-02-27T11:38:18.538Z,40.75
2019-02-27T11:39:23.765Z,40.72
2019-02-27T11:40:29.411Z,40.64
2019-02-27T11:41:34.640Z,40.58
2019-02-27T11:42:39.804Z,40.51
2019-02-27T11:43:44.903Z,40.44
2019-02-27T11:44:50.252Z,40.38
2019-02-27T11:45:58.170Z,40.30
2019-02-27T11:47:03.895Z,40.27
2019-02-27T11:48:09.071Z,40.29
2019-02-27T11:49:14.139Z,40.30
2019-02-27T11:50:19.212Z,40.34
2019-02-27T11:51:24.618Z,40.37
2019-02-27T11:52:29.617Z,40.36
2019-02-27T11:53:36.021Z,40.34
2019-02-27T11:54:43.329Z,40.29
2019-02-27T11:55:48.874Z,40.27
2019-02-27T11:56:56.099Z,40.28
2019-02-27T11:58:04.563Z,40.25
2019-02-27T11:59:10.292Z,40.25
2019-02-27T12:00:21.021Z,40.19
2019-02-27T12:01:26.787Z,40.11
2019-02-27T12:02:37.065Z,40.07
2019-02-27T12:03:39.460Z,39.94
2019-02-27T12:04:44.974Z,39.83
2019-02-27T12:05:50.066Z,39.64
2019-02-27T12:06:55.110Z,39.41
2019-02-27T12:08:00.321Z,39.25
2019-02-27T12:09:07.051Z,39.22
2019-02-27T12:10:16.019Z,39.27
2019-02-27T12:11:21.263Z,39.26
2019-02-27T12:12:26.436Z,39.23
2019-02-27T12:13:32.302Z,39.17
2019-02-27T12:14:38.446Z,39.17
2019-02-27T12:15:44.264Z,39.13
2019-02-27T12:16:51.705Z,39.05
2019-02-27T12:17:59.867Z,38.93
2019-02-27T12:19:03.443Z,38.85
2019-02-27T12:20:12.114Z,38.81
2019-02-27T12:21:17.521Z,38.76
2019-02-27T12:22:22.624Z,38.72
2019-02-27T12:23:27.819Z,38.59
2019-02-27T12:24:33.018Z,38.44
2019-02-27T12:25:38.756Z,38.35
2019-02-27T12:26:43.856Z,38.25
2019-02-27T12:27:51.896Z,38.16
2019-02-27T12:28:57.062Z,38.14
2019-02-27T12:30:03.004Z,38.09
2019-02-27T12:31:10.957Z,38.06
2019-02-27T12:32:19.309Z,38.01
2019-02-27T12:33:23.864Z,37.91
2019-02-27T12:34:28.979Z,37.82
2019-02-27T12:35:34.446Z,37.76
2019-02-27T12:36:39.654Z,37.70
2019-02-27T12:37:46.372Z,37.67
2019-02-27T12:38:51.850Z,37.72
2019-02-27T12:39:57.216Z,37.79
2019-02-27T12:41:02.420Z,37.85
2019-02-27T12:42:07.942Z,37.86
2019-02-27T12:43:17.386Z,37.89
2019-02-27T12:44:20.490Z,37.95
2019-02-27T12:45:26.791Z,37.96
2019-02-27T12:46:34.218Z,37.93
2019-02-27T12:47:40.658Z,37.85
2019-02-27T12:48:46.571Z,37.85
2019-02-27T12:49:54.163Z,37.86
2019-02-27T12:51:03.409Z,37.79
2019-02-27T12:52:05.900Z,37.75
2019-02-27T12:53:13.891Z,37.75
2019-02-27T12:54:19.039Z,37.72
2019-02-27T12:55:24.398Z,37.69
2019-02-27T12:56:29.588Z,37.65
2019-02-27T12:57:34.911Z,37.58
2019-02-27T12:58:40.017Z,37.55
2019-02-27T12:59:45.347Z,37.51
2019-02-27T13:00:50.456Z,37.56
2019-02-27T13:01:56.048Z,37.57
2019-02-27T13:03:01.506Z,37.60
2019-02-27T13:04:06.941Z,37.57
2019-02-27T13:05:13.318Z,37.49
2019-02-27T13:06:18.803Z,37.38
2019-02-27T13:07:23.998Z,37.38
2019-02-27T13:08:29.132Z,37.43
2019-02-27T13:09:34.879Z,37.41
2019-02-27T13:10:40.025Z,37.41
2019-02-27T13:11:45.232Z,37.38
2019-02-27T13:12:51.899Z,37.33
2019-02-27T13:13:59.692Z,37.28
2019-02-27T13:15:06.741Z,37.26
2019-02-27T13:16:14.300Z,37.26
2019-02-27T13:17:21.449Z,37.23
2019-02-27T13:18:25.249Z,37.10
2019-02-27T13:19:31.522Z,36.97
2019-02-27T13:20:36.971Z,36.89
2019-02-27T13:21:42.541Z,36.75
2019-02-27T13:22:47.666Z,36.68
2019-02-27T13:23:53.166Z,36.65
2019-02-27T13:24:58.323Z,36.63
2019-02-27T13:26:03.686Z,36.64
2019-02-27T13:27:09.252Z,36.62
2019-02-27T13:28:15.682Z,36.62
2019-02-27T13:29:21.591Z,36.63
2019-02-27T13:30:27.273Z,36.65
2019-02-27T13:31:32.659Z,36.72
2019-02-27T13:32:38.172Z,36.81
2019-02-27T13:33:43.211Z,36.83
2019-02-27T13:34:49.104Z,36.82
2019-02-27T13:35:56.742Z,36.84
2019-02-27T13:37:01.319Z,36.87
2019-02-27T13:38:06.486Z,36.90
2019-02-27T13:39:11.579Z,36.91
2019-02-27T13:40:17.932Z,36.95
2019-02-27T13:41:23.809Z,36.93
2019-02-27T13:42:29.393Z,36.91
2019-02-27T13:43:34.607Z,36.90
2019-02-27T13:44:39.779Z,36.93
2019-02-27T13:45:47.388Z,36.97
2019-02-27T13:46:54.556Z,36.98
2019-02-27T13:47:59.208Z,36.99
2019-02-27T13:49:04.560Z,36.97
2019-02-27T13:50:09.837Z,37.01
2019-02-27T13:51:15.345Z,36.98
2019-02-27T13:52:20.415Z,36.94
2019-02-27T13:53:26.641Z,36.91
2019-02-27T13:54:34.838Z,36.90
2019-02-27T13:55:38.861Z,36.82
2019-02-27T13:56:44.112Z,36.79
2019-02-27T13:57:49.220Z,36.76
2019-02-27T13:58:54.398Z,36.81
2019-02-27T14:00:00.273Z,36.80
2019-02-27T14:01:06.945Z,36.78
2019-02-27T14:02:12.403Z,36.76
2019-02-27T14:03:17.958Z,36.73
2019-02-27T14:04:22.968Z,36.66
2019-02-27T14:05:29.538Z,36.67
2019-02-27T14:06:34.820Z,36.76
2019-02-27T14:07:40.579Z,36.76
2019-02-27T14:08:45.765Z,36.71
2019-02-27T14:09:50.877Z,36.56
2019-02-27T14:10:56.143Z,36.44
2019-02-27T14:12:01.323Z,36.34
2019-02-27T14:13:09.698Z,36.08
2019-02-27T14:14:15.067Z,35.88
2019-02-27T14:15:20.436Z,35.64
2019-02-27T14:16:25.738Z,35.58
2019-02-27T14:17:31.121Z,35.55
2019-02-27T14:18:37.725Z,35.50
2019-02-27T14:19:42.928Z,35.50
2019-02-27T14:20:48.059Z,35.48
2019-02-27T14:21:53.186Z,35.39
2019-02-27T14:22:58.564Z,35.36
2019-02-27T14:24:03.933Z,35.30
2019-02-27T14:25:10.652Z,35.23
2019-02-27T14:26:15.832Z,35.20
2019-02-27T14:27:21.165Z,35.20
2019-02-27T14:28:26.323Z,35.19
2019-02-27T14:29:31.824Z,35.22
2019-02-27T14:30:39.731Z,35.25
2019-02-27T14:31:44.819Z,35.32
2019-02-27T14:32:49.902Z,35.39
2019-02-27T14:33:55.211Z,35.41
2019-02-27T14:35:00.740Z,35.45
2019-02-27T14:36:08.487Z,35.53
2019-02-27T14:37:16.363Z,35.54
2019-02-27T14:38:21.852Z,35.54
2019-02-27T14:39:29.676Z,35.65
2019-02-27T14:40:37.793Z,35.77
2019-02-27T14:41:42.387Z,35.90
2019-02-27T14:42:47.640Z,35.86
2019-02-27T14:43:52.932Z,35.76
2019-02-27T14:44:58.698Z,35.66
2019-02-27T14:46:03.887Z,35.62
2019-02-27T14:47:09.352Z,35.59